sensor_id;sensor_type;location;lat;lon;timestamp;temperature;humidity
6948;DHT22;3513;47.664;9.162;2023-02-24T00:02:00;4.30;99.90
6948;DHT22;3513;47.664;9.162;2023-02-24T00:04:30;4.30;99.90
6948;DHT22;3513;47.664;9.162;2023-02-24T00:06:56;4.30;99.90
6948;DHT22;3513;47.664;9.162;2023-02-24T00:09:24;4.20;99.90
6948;DHT22;3513;47.664;9.162;2023-02-24T00:11:58;4.30;99.90
6948;DHT22;3513;47.664;9.162;2023-02-24T00:14:27;4.30;99.90
6948;DHT22;3513;47.664;9.162;2023-02-24T00:16:53;4.30;99.90
6948;DHT22;3513;47.664;9.162;2023-02-24T00:19:21;4.30;99.90
6948;DHT22;3513;47.664;9.162;2023-02-24T00:21:48;4.30;99.90
6948;DHT22;3513;47.664;9.162;2023-02-24T00:24:16;4.30;99.90
6948;DHT22;3513;47.664;9.162;2023-02-24T00:26:42;4.20;99.90
6948;DHT22;3513;47.664;9.162;2023-02-24T00:29:10;4.20;99.90
6948;DHT22;3513;47.664;9.162;2023-02-24T00:31:36;4.10;99.90
6948;DHT22;3513;47.664;9.162;2023-02-24T00:34:07;4.00;99.90
6948;DHT22;3513;47.664;9.162;2023-02-24T00:36:33;3.90;99.90
6948;DHT22;3513;47.664;9.162;2023-02-24T00:39:01;3.90;99.90
6948;DHT22;3513;47.664;9.162;2023-02-24T00:41:34;3.90;99.90
6948;DHT22;3513;47.664;9.162;2023-02-24T00:44:02;3.90;99.90
6948;DHT22;3513;47.664;9.162;2023-02-24T00:49:00;3.90;99.90
6948;DHT22;3513;47.664;9.162;2023-02-24T00:51:33;3.90;99.90
6948;DHT22;3513;47.664;9.162;2023-02-24T00:53:59;3.90;99.90
6948;DHT22;3513;47.664;9.162;2023-02-24T00:56:26;3.80;99.90
6948;DHT22;3513;47.664;9.162;2023-02-24T00:58:53;3.80;99.90
6948;DHT22;3513;47.664;9.162;2023-02-24T01:01:22;3.80;99.90
6948;DHT22;3513;47.664;9.162;2023-02-24T01:03:49;3.80;99.90
6948;DHT22;3513;47.664;9.162;2023-02-24T01:06:16;3.80;99.90
6948;DHT22;3513;47.664;9.162;2023-02-24T01:08:49;3.80;99.90
6948;DHT22;3513;47.664;9.162;2023-02-24T01:11:20;3.80;99.90
6948;DHT22;3513;47.664;9.162;2023-02-24T01:14:10;3.70;99.90
6948;DHT22;3513;47.664;9.162;2023-02-24T01:16:36;3.70;99.90
6948;DHT22;3513;47.664;9.162;2023-02-24T01:19:03;3.60;99.90
6948;DHT22;3513;47.664;9.162;2023-02-24T01:21:30;3.60;99.90
6948;DHT22;3513;47.664;9.162;2023-02-24T01:23:56;3.60;99.90
6948;DHT22;3513;47.664;9.162;2023-02-24T01:26:22;3.60;99.90
6948;DHT22;3513;47.664;9.162;2023-02-24T01:28:48;3.60;99.90
6948;DHT22;3513;47.664;9.162;2023-02-24T01:31:15;3.60;99.90
6948;DHT22;3513;47.664;9.162;2023-02-24T01:33:49;3.60;99.90
6948;DHT22;3513;47.664;9.162;2023-02-24T01:36:16;3.50;99.90
6948;DHT22;3513;47.664;9.162;2023-02-24T01:38:43;3.50;99.90
6948;DHT22;3513;47.664;9.162;2023-02-24T01:41:17;3.50;99.90
6948;DHT22;3513;47.664;9.162;2023-02-24T01:43:56;3.50;99.90
6948;DHT22;3513;47.664;9.162;2023-02-24T01:46:28;3.50;99.90
6948;DHT22;3513;47.664;9.162;2023-02-24T01:48:56;3.50;99.90
6948;DHT22;3513;47.664;9.162;2023-02-24T01:51:25;3.50;99.90
6948;DHT22;3513;47.664;9.162;2023-02-24T01:53:54;3.50;99.90
6948;DHT22;3513;47.664;9.162;2023-02-24T01:56:20;3.50;99.90
6948;DHT22;3513;47.664;9.162;2023-02-24T01:58:46;3.60;99.90
6948;DHT22;3513;47.664;9.162;2023-02-24T02:01:14;3.60;99.90
6948;DHT22;3513;47.664;9.162;2023-02-24T02:03:41;3.60;99.90
6948;DHT22;3513;47.664;9.162;2023-02-24T02:06:11;3.60;99.90
6948;DHT22;3513;47.664;9.162;2023-02-24T02:08:40;3.60;99.90
6948;DHT22;3513;47.664;9.162;2023-02-24T02:11:08;3.70;99.90
6948;DHT22;3513;47.664;9.162;2023-02-24T02:13:35;3.70;99.90
6948;DHT22;3513;47.664;9.162;2023-02-24T02:19:13;3.70;99.90
6948;DHT22;3513;47.664;9.162;2023-02-24T02:37:10;3.60;99.90
6948;DHT22;3513;47.664;9.162;2023-02-24T02:45:09;3.60;99.90
6948;DHT22;3513;47.664;9.162;2023-02-24T02:50:26;3.60;99.90
6948;DHT22;3513;47.664;9.162;2023-02-24T02:53:07;3.50;99.90
6948;DHT22;3513;47.664;9.162;2023-02-24T02:55:44;3.60;99.90
6948;DHT22;3513;47.664;9.162;2023-02-24T02:58:15;3.60;99.90
6948;DHT22;3513;47.664;9.162;2023-02-24T03:00:49;3.60;99.90
6948;DHT22;3513;47.664;9.162;2023-02-24T03:03:34;3.60;99.90
6948;DHT22;3513;47.664;9.162;2023-02-24T03:08:32;3.60;99.90
6948;DHT22;3513;47.664;9.162;2023-02-24T03:11:00;3.50;99.90
6948;DHT22;3513;47.664;9.162;2023-02-24T03:13:30;3.50;99.90
6948;DHT22;3513;47.664;9.162;2023-02-24T03:15:58;3.60;99.90
6948;DHT22;3513;47.664;9.162;2023-02-24T03:18:31;3.50;99.90
6948;DHT22;3513;47.664;9.162;2023-02-24T03:21:08;3.50;99.90
6948;DHT22;3513;47.664;9.162;2023-02-24T03:23:47;3.50;99.90
6948;DHT22;3513;47.664;9.162;2023-02-24T03:26:20;3.50;99.90
6948;DHT22;3513;47.664;9.162;2023-02-24T03:31:20;3.50;99.90
6948;DHT22;3513;47.664;9.162;2023-02-24T03:33:56;4.50;99.90
6948;DHT22;3513;47.664;9.162;2023-02-24T03:36:26;3.40;99.90
6948;DHT22;3513;47.664;9.162;2023-02-24T03:38:52;3.30;99.90
6948;DHT22;3513;47.664;9.162;2023-02-24T03:41:18;3.30;99.90
6948;DHT22;3513;47.664;9.162;2023-02-24T03:43:45;3.30;99.90
6948;DHT22;3513;47.664;9.162;2023-02-24T03:46:13;3.30;99.90
6948;DHT22;3513;47.664;9.162;2023-02-24T03:48:46;3.30;99.90
6948;DHT22;3513;47.664;9.162;2023-02-24T03:51:18;3.30;99.90
6948;DHT22;3513;47.664;9.162;2023-02-24T03:56:35;3.40;99.90
6948;DHT22;3513;47.664;9.162;2023-02-24T03:59:37;3.40;99.90
6948;DHT22;3513;47.664;9.162;2023-02-24T04:02:11;3.40;99.90
6948;DHT22;3513;47.664;9.162;2023-02-24T04:07:46;3.40;99.90
6948;DHT22;3513;47.664;9.162;2023-02-24T04:10:57;3.40;99.90
6948;DHT22;3513;47.664;9.162;2023-02-24T04:13:53;3.40;99.90
6948;DHT22;3513;47.664;9.162;2023-02-24T04:19:17;3.40;99.90
6948;DHT22;3513;47.664;9.162;2023-02-24T04:21:45;3.50;99.90
6948;DHT22;3513;47.664;9.162;2023-02-24T04:24:13;3.50;99.90
6948;DHT22;3513;47.664;9.162;2023-02-24T04:26:46;3.50;99.90
6948;DHT22;3513;47.664;9.162;2023-02-24T04:29:19;3.60;99.90
6948;DHT22;3513;47.664;9.162;2023-02-24T04:31:59;3.50;99.90
6948;DHT22;3513;47.664;9.162;2023-02-24T04:34:26;3.50;99.90
6948;DHT22;3513;47.664;9.162;2023-02-24T04:36:57;3.50;99.90
6948;DHT22;3513;47.664;9.162;2023-02-24T04:39:24;3.50;99.90
6948;DHT22;3513;47.664;9.162;2023-02-24T04:41:50;3.50;99.90
6948;DHT22;3513;47.664;9.162;2023-02-24T04:44:17;3.40;99.90
6948;DHT22;3513;47.664;9.162;2023-02-24T04:46:43;3.40;99.90
6948;DHT22;3513;47.664;9.162;2023-02-24T04:49:10;3.40;99.90
6948;DHT22;3513;47.664;9.162;2023-02-24T04:51:37;3.50;99.90
6948;DHT22;3513;47.664;9.162;2023-02-24T04:54:07;3.60;99.90
6948;DHT22;3513;47.664;9.162;2023-02-24T04:56:35;3.70;99.90
6948;DHT22;3513;47.664;9.162;2023-02-24T04:59:01;3.60;99.90
6948;DHT22;3513;47.664;9.162;2023-02-24T05:01:27;3.50;99.90
6948;DHT22;3513;47.664;9.162;2023-02-24T05:03:53;3.50;99.90
6948;DHT22;3513;47.664;9.162;2023-02-24T05:06:19;3.40;99.90
6948;DHT22;3513;47.664;9.162;2023-02-24T05:08:45;3.30;99.90
6948;DHT22;3513;47.664;9.162;2023-02-24T05:11:15;3.20;99.90
6948;DHT22;3513;47.664;9.162;2023-02-24T05:13:41;3.20;99.90
6948;DHT22;3513;47.664;9.162;2023-02-24T05:16:11;3.20;99.90
6948;DHT22;3513;47.664;9.162;2023-02-24T05:18:38;3.30;99.90
6948;DHT22;3513;47.664;9.162;2023-02-24T05:21:11;3.30;99.90
6948;DHT22;3513;47.664;9.162;2023-02-24T05:23:56;3.20;99.90
6948;DHT22;3513;47.664;9.162;2023-02-24T05:26:31;3.30;99.90
6948;DHT22;3513;47.664;9.162;2023-02-24T05:28:58;3.30;99.90
6948;DHT22;3513;47.664;9.162;2023-02-24T05:31:27;3.30;99.90
6948;DHT22;3513;47.664;9.162;2023-02-24T05:34:05;3.40;99.90
6948;DHT22;3513;47.664;9.162;2023-02-24T05:36:37;3.50;99.90
6948;DHT22;3513;47.664;9.162;2023-02-24T05:39:05;3.50;99.90
6948;DHT22;3513;47.664;9.162;2023-02-24T05:41:32;3.50;99.90
6948;DHT22;3513;47.664;9.162;2023-02-24T05:44:02;3.50;99.90
6948;DHT22;3513;47.664;9.162;2023-02-24T05:46:34;3.50;99.90
6948;DHT22;3513;47.664;9.162;2023-02-24T05:49:15;3.50;99.90
6948;DHT22;3513;47.664;9.162;2023-02-24T05:51:45;3.50;99.90
6948;DHT22;3513;47.664;9.162;2023-02-24T05:54:21;3.50;99.90
6948;DHT22;3513;47.664;9.162;2023-02-24T05:56:47;3.50;99.90
6948;DHT22;3513;47.664;9.162;2023-02-24T05:59:14;3.40;99.90
6948;DHT22;3513;47.664;9.162;2023-02-24T06:01:47;3.30;99.90
6948;DHT22;3513;47.664;9.162;2023-02-24T06:04:14;3.30;99.90
6948;DHT22;3513;47.664;9.162;2023-02-24T06:06:47;3.30;99.90
6948;DHT22;3513;47.664;9.162;2023-02-24T06:09:18;3.30;99.90
6948;DHT22;3513;47.664;9.162;2023-02-24T06:11:43;3.50;99.90
6948;DHT22;3513;47.664;9.162;2023-02-24T06:14:11;3.50;99.90
6948;DHT22;3513;47.664;9.162;2023-02-24T06:16:39;3.50;99.90
6948;DHT22;3513;47.664;9.162;2023-02-24T06:19:06;3.50;99.90
6948;DHT22;3513;47.664;9.162;2023-02-24T06:21:36;3.50;99.90
6948;DHT22;3513;47.664;9.162;2023-02-24T06:24:09;3.50;99.90
6948;DHT22;3513;47.664;9.162;2023-02-24T06:26:39;3.60;99.90
6948;DHT22;3513;47.664;9.162;2023-02-24T06:29:13;3.60;99.90
6948;DHT22;3513;47.664;9.162;2023-02-24T06:31:39;3.50;99.90
6948;DHT22;3513;47.664;9.162;2023-02-24T06:34:06;3.50;99.90
6948;DHT22;3513;47.664;9.162;2023-02-24T06:36:31;3.50;99.90
6948;DHT22;3513;47.664;9.162;2023-02-24T06:38:57;3.60;99.90
6948;DHT22;3513;47.664;9.162;2023-02-24T06:41:23;3.60;99.90
6948;DHT22;3513;47.664;9.162;2023-02-24T06:43:48;3.70;99.90
6948;DHT22;3513;47.664;9.162;2023-02-24T06:46:15;3.70;99.90
6948;DHT22;3513;47.664;9.162;2023-02-24T06:48:41;3.70;99.90
6948;DHT22;3513;47.664;9.162;2023-02-24T06:51:12;3.80;99.90
6948;DHT22;3513;47.664;9.162;2023-02-24T06:53:38;3.80;99.90
6948;DHT22;3513;47.664;9.162;2023-02-24T06:56:15;3.80;99.90
6948;DHT22;3513;47.664;9.162;2023-02-24T06:58:49;3.80;99.90
6948;DHT22;3513;47.664;9.162;2023-02-24T07:01:17;3.70;99.90
6948;DHT22;3513;47.664;9.162;2023-02-24T07:03:43;3.70;99.90
6948;DHT22;3513;47.664;9.162;2023-02-24T07:06:43;3.80;99.90
6948;DHT22;3513;47.664;9.162;2023-02-24T07:09:11;3.80;99.90
6948;DHT22;3513;47.664;9.162;2023-02-24T07:11:42;3.90;99.90
6948;DHT22;3513;47.664;9.162;2023-02-24T07:14:10;3.90;99.90
6948;DHT22;3513;47.664;9.162;2023-02-24T07:16:38;3.90;99.90
6948;DHT22;3513;47.664;9.162;2023-02-24T07:19:08;3.90;99.90
6948;DHT22;3513;47.664;9.162;2023-02-24T07:21:37;3.90;99.90
6948;DHT22;3513;47.664;9.162;2023-02-24T07:24:08;3.80;99.90
6948;DHT22;3513;47.664;9.162;2023-02-24T07:26:38;3.80;99.90
6948;DHT22;3513;47.664;9.162;2023-02-24T07:29:06;3.80;99.90
6948;DHT22;3513;47.664;9.162;2023-02-24T07:31:32;3.80;99.90
6948;DHT22;3513;47.664;9.162;2023-02-24T07:33:58;3.90;99.90
6948;DHT22;3513;47.664;9.162;2023-02-24T07:36:27;4.10;99.90
6948;DHT22;3513;47.664;9.162;2023-02-24T07:39:04;4.20;99.90
6948;DHT22;3513;47.664;9.162;2023-02-24T07:41:33;4.30;99.90
6948;DHT22;3513;47.664;9.162;2023-02-24T07:43:58;4.50;99.90
6948;DHT22;3513;47.664;9.162;2023-02-24T07:46:30;4.60;99.90
6948;DHT22;3513;47.664;9.162;2023-02-24T07:48:56;4.80;99.90
6948;DHT22;3513;47.664;9.162;2023-02-24T07:51:25;4.80;99.90
6948;DHT22;3513;47.664;9.162;2023-02-24T07:53:54;4.70;99.90
6948;DHT22;3513;47.664;9.162;2023-02-24T07:56:22;4.70;99.90
6948;DHT22;3513;47.664;9.162;2023-02-24T07:59:02;4.70;99.90
6948;DHT22;3513;47.664;9.162;2023-02-24T08:01:34;4.50;99.90
6948;DHT22;3513;47.664;9.162;2023-02-24T08:04:15;4.40;99.90
6948;DHT22;3513;47.664;9.162;2023-02-24T08:06:41;4.40;99.90
6948;DHT22;3513;47.664;9.162;2023-02-24T08:09:17;4.40;99.90
6948;DHT22;3513;47.664;9.162;2023-02-24T08:11:53;4.60;99.90
6948;DHT22;3513;47.664;9.162;2023-02-24T08:14:19;4.80;99.90
6948;DHT22;3513;47.664;9.162;2023-02-24T08:16:48;5.00;99.90
6948;DHT22;3513;47.664;9.162;2023-02-24T08:19:16;5.10;99.90
6948;DHT22;3513;47.664;9.162;2023-02-24T08:21:50;5.30;99.90
6948;DHT22;3513;47.664;9.162;2023-02-24T08:26:47;5.60;99.90
6948;DHT22;3513;47.664;9.162;2023-02-24T08:29:37;5.60;99.90
6948;DHT22;3513;47.664;9.162;2023-02-24T08:34:49;5.60;99.90
6948;DHT22;3513;47.664;9.162;2023-02-24T08:37:15;5.60;99.90
6948;DHT22;3513;47.664;9.162;2023-02-24T08:39:41;5.70;99.90
6948;DHT22;3513;47.664;9.162;2023-02-24T08:42:08;5.80;99.90
6948;DHT22;3513;47.664;9.162;2023-02-24T08:44:34;5.90;99.90
6948;DHT22;3513;47.664;9.162;2023-02-24T08:47:01;6.00;99.90
6948;DHT22;3513;47.664;9.162;2023-02-24T08:49:29;6.10;99.90
6948;DHT22;3513;47.664;9.162;2023-02-24T08:51:58;6.20;99.90
6948;DHT22;3513;47.664;9.162;2023-02-24T08:54:27;6.40;99.90
6948;DHT22;3513;47.664;9.162;2023-02-24T08:56:57;6.50;99.90
6948;DHT22;3513;47.664;9.162;2023-02-24T08:59:33;6.70;99.90
6948;DHT22;3513;47.664;9.162;2023-02-24T09:02:14;6.70;99.90
6948;DHT22;3513;47.664;9.162;2023-02-24T09:04:48;6.70;99.90
6948;DHT22;3513;47.664;9.162;2023-02-24T09:07:18;6.30;99.90
6948;DHT22;3513;47.664;9.162;2023-02-24T09:09:45;6.20;99.90
6948;DHT22;3513;47.664;9.162;2023-02-24T09:12:12;6.20;99.90
6948;DHT22;3513;47.664;9.162;2023-02-24T09:14:51;6.40;99.90
6948;DHT22;3513;47.664;9.162;2023-02-24T09:17:21;6.70;99.90
6948;DHT22;3513;47.664;9.162;2023-02-24T09:22:49;7.30;99.90
6948;DHT22;3513;47.664;9.162;2023-02-24T09:25:38;7.40;99.90
6948;DHT22;3513;47.664;9.162;2023-02-24T09:28:19;7.60;99.90
6948;DHT22;3513;47.664;9.162;2023-02-24T09:30:51;7.60;99.90
6948;DHT22;3513;47.664;9.162;2023-02-24T09:33:34;7.60;99.90
6948;DHT22;3513;47.664;9.162;2023-02-24T09:36:16;7.60;99.90
6948;DHT22;3513;47.664;9.162;2023-02-24T09:38:54;7.80;99.90
6948;DHT22;3513;47.664;9.162;2023-02-24T09:52:44;8.30;99.90
6948;DHT22;3513;47.664;9.162;2023-02-24T09:55:29;8.30;99.90
6948;DHT22;3513;47.664;9.162;2023-02-24T09:58:07;8.40;99.90
6948;DHT22;3513;47.664;9.162;2023-02-24T10:00:58;8.60;99.90
6948;DHT22;3513;47.664;9.162;2023-02-24T10:03:32;8.80;99.90
6948;DHT22;3513;47.664;9.162;2023-02-24T10:06:24;8.90;99.90
6948;DHT22;3513;47.664;9.162;2023-02-24T10:09:22;9.00;99.90
6948;DHT22;3513;47.664;9.162;2023-02-24T10:11:54;9.10;99.90
6948;DHT22;3513;47.664;9.162;2023-02-24T10:17:21;9.10;99.90
6948;DHT22;3513;47.664;9.162;2023-02-24T10:19:47;9.00;99.90
6948;DHT22;3513;47.664;9.162;2023-02-24T10:22:46;9.00;99.90
6948;DHT22;3513;47.664;9.162;2023-02-24T10:25:38;8.90;99.90
6948;DHT22;3513;47.664;9.162;2023-02-24T10:28:25;8.70;99.90
6948;DHT22;3513;47.664;9.162;2023-02-24T10:31:26;8.80;99.90
6948;DHT22;3513;47.664;9.162;2023-02-24T10:34:25;9.00;99.90
6948;DHT22;3513;47.664;9.162;2023-02-24T10:37:22;9.10;99.90
6948;DHT22;3513;47.664;9.162;2023-02-24T10:39:50;9.20;99.90
6948;DHT22;3513;47.664;9.162;2023-02-24T10:42:29;9.30;99.90
6948;DHT22;3513;47.664;9.162;2023-02-24T10:45:25;9.30;99.90
6948;DHT22;3513;47.664;9.162;2023-02-24T10:47:57;9.20;99.90
6948;DHT22;3513;47.664;9.162;2023-02-24T10:50:40;9.30;99.90
6948;DHT22;3513;47.664;9.162;2023-02-24T10:53:17;9.30;99.90
6948;DHT22;3513;47.664;9.162;2023-02-24T10:56:08;9.30;99.90
6948;DHT22;3513;47.664;9.162;2023-02-24T10:59:17;9.30;99.90
6948;DHT22;3513;47.664;9.162;2023-02-24T11:02:13;9.30;99.90
6948;DHT22;3513;47.664;9.162;2023-02-24T11:04:52;9.20;99.90
6948;DHT22;3513;47.664;9.162;2023-02-24T11:07:19;9.20;99.90
6948;DHT22;3513;47.664;9.162;2023-02-24T11:10:17;9.40;99.90
6948;DHT22;3513;47.664;9.162;2023-02-24T11:12:52;9.50;99.90
6948;DHT22;3513;47.664;9.162;2023-02-24T11:18:03;9.60;99.90
6948;DHT22;3513;47.664;9.162;2023-02-24T11:20:44;9.60;99.90
6948;DHT22;3513;47.664;9.162;2023-02-24T11:23:23;9.70;99.90
6948;DHT22;3513;47.664;9.162;2023-02-24T11:25:57;9.90;99.90
6948;DHT22;3513;47.664;9.162;2023-02-24T11:28:46;9.80;99.90
6948;DHT22;3513;47.664;9.162;2023-02-24T11:34:20;9.90;99.70
6948;DHT22;3513;47.664;9.162;2023-02-24T11:39:30;9.80;99.80
6948;DHT22;3513;47.664;9.162;2023-02-24T11:42:02;9.90;99.80
6948;DHT22;3513;47.664;9.162;2023-02-24T11:47:23;10.30;99.00
6948;DHT22;3513;47.664;9.162;2023-02-24T11:50:25;10.30;98.70
6948;DHT22;3513;47.664;9.162;2023-02-24T11:52:51;10.50;98.70
6948;DHT22;3513;47.664;9.162;2023-02-24T11:55:33;10.50;98.40
6948;DHT22;3513;47.664;9.162;2023-02-24T11:58:04;10.60;98.20
6948;DHT22;3513;47.664;9.162;2023-02-24T12:00:38;10.60;97.90
6948;DHT22;3513;47.664;9.162;2023-02-24T12:03:22;10.70;98.40
6948;DHT22;3513;47.664;9.162;2023-02-24T12:05:54;10.80;97.80
6948;DHT22;3513;47.664;9.162;2023-02-24T12:08:39;10.90;97.40
6948;DHT22;3513;47.664;9.162;2023-02-24T12:11:24;10.90;97.00
6948;DHT22;3513;47.664;9.162;2023-02-24T12:14:14;11.00;97.00
6948;DHT22;3513;47.664;9.162;2023-02-24T12:16:44;11.10;96.90
6948;DHT22;3513;47.664;9.162;2023-02-24T12:19:19;11.20;96.70
6948;DHT22;3513;47.664;9.162;2023-02-24T12:22:12;11.30;96.40
6948;DHT22;3513;47.664;9.162;2023-02-24T12:24:41;11.40;96.10
6948;DHT22;3513;47.664;9.162;2023-02-24T12:31:01;11.70;95.40
6948;DHT22;3513;47.664;9.162;2023-02-24T12:35:52;11.90;95.50
6948;DHT22;3513;47.664;9.162;2023-02-24T12:38:52;12.40;95.70
6948;DHT22;3513;47.664;9.162;2023-02-24T12:44:10;13.00;94.20
6948;DHT22;3513;47.664;9.162;2023-02-24T12:46:41;13.30;93.50
6948;DHT22;3513;47.664;9.162;2023-02-24T12:55:16;13.70;91.70
6948;DHT22;3513;47.664;9.162;2023-02-24T12:59:47;13.90;91.20
6948;DHT22;3513;47.664;9.162;2023-02-24T13:02:47;14.10;91.40
6948;DHT22;3513;47.664;9.162;2023-02-24T13:05:27;14.50;90.90
6948;DHT22;3513;47.664;9.162;2023-02-24T13:10:36;15.00;88.40
6948;DHT22;3513;47.664;9.162;2023-02-24T13:15:49;13.30;83.60
6948;DHT22;3513;47.664;9.162;2023-02-24T13:18:23;14.50;85.30
6948;DHT22;3513;47.664;9.162;2023-02-24T13:21:01;14.50;86.10
6948;DHT22;3513;47.664;9.162;2023-02-24T13:23:27;14.40;87.70
6948;DHT22;3513;47.664;9.162;2023-02-24T13:25:54;14.40;87.30
6948;DHT22;3513;47.664;9.162;2023-02-24T13:28:28;14.60;87.40
6948;DHT22;3513;47.664;9.162;2023-02-24T13:31:11;14.60;87.20
6948;DHT22;3513;47.664;9.162;2023-02-24T13:33:40;14.30;87.50
6948;DHT22;3513;47.664;9.162;2023-02-24T13:36:22;15.00;86.80
6948;DHT22;3513;47.664;9.162;2023-02-24T13:38:49;15.30;85.10
6948;DHT22;3513;47.664;9.162;2023-02-24T13:41:35;15.20;84.30
6948;DHT22;3513;47.664;9.162;2023-02-24T13:44:20;15.10;83.50
6948;DHT22;3513;47.664;9.162;2023-02-24T13:46:56;15.10;83.60
6948;DHT22;3513;47.664;9.162;2023-02-24T13:49:41;15.30;83.50
6948;DHT22;3513;47.664;9.162;2023-02-24T14:03:20;15.00;84.50
6948;DHT22;3513;47.664;9.162;2023-02-24T14:05:47;14.60;84.70
6948;DHT22;3513;47.664;9.162;2023-02-24T14:08:23;14.60;84.50
6948;DHT22;3513;47.664;9.162;2023-02-24T14:10:56;14.20;84.50
6948;DHT22;3513;47.664;9.162;2023-02-24T14:13:26;14.10;84.80
6948;DHT22;3513;47.664;9.162;2023-02-24T14:15:59;14.20;85.00
6948;DHT22;3513;47.664;9.162;2023-02-24T14:18:28;14.10;85.00
6948;DHT22;3513;47.664;9.162;2023-02-24T14:20:55;14.00;84.50
6948;DHT22;3513;47.664;9.162;2023-02-24T14:26:00;13.70;84.20
6948;DHT22;3513;47.664;9.162;2023-02-24T14:28:35;14.10;85.90
6948;DHT22;3513;47.664;9.162;2023-02-24T14:31:11;13.60;86.20
6948;DHT22;3513;47.664;9.162;2023-02-24T14:33:39;13.20;86.20
6948;DHT22;3513;47.664;9.162;2023-02-24T14:36:12;13.70;87.00
6948;DHT22;3513;47.664;9.162;2023-02-24T14:38:40;13.30;87.30
6948;DHT22;3513;47.664;9.162;2023-02-24T14:41:19;13.30;87.70
6948;DHT22;3513;47.664;9.162;2023-02-24T14:51:11;13.20;88.00
6948;DHT22;3513;47.664;9.162;2023-02-24T14:53:49;13.30;88.00
6948;DHT22;3513;47.664;9.162;2023-02-24T14:56:17;13.30;88.40
6948;DHT22;3513;47.664;9.162;2023-02-24T15:03:53;13.10;89.20
6948;DHT22;3513;47.664;9.162;2023-02-24T15:06:26;12.80;89.10
6948;DHT22;3513;47.664;9.162;2023-02-24T15:09:00;12.90;89.00
6948;DHT22;3513;47.664;9.162;2023-02-24T15:11:29;13.10;88.90
6948;DHT22;3513;47.664;9.162;2023-02-24T15:18:51;13.20;89.00
6948;DHT22;3513;47.664;9.162;2023-02-24T15:21:20;13.10;88.90
6948;DHT22;3513;47.664;9.162;2023-02-24T15:26:24;12.60;88.50
6948;DHT22;3513;47.664;9.162;2023-02-24T15:29:00;12.70;89.00
6948;DHT22;3513;47.664;9.162;2023-02-24T15:31:26;12.30;90.00
6948;DHT22;3513;47.664;9.162;2023-02-24T15:34:01;12.10;90.40
6948;DHT22;3513;47.664;9.162;2023-02-24T15:36:31;12.00;91.00
6948;DHT22;3513;47.664;9.162;2023-02-24T15:39:02;11.90;91.20
6948;DHT22;3513;47.664;9.162;2023-02-24T15:41:42;11.70;91.40
6948;DHT22;3513;47.664;9.162;2023-02-24T15:44:35;11.70;91.70
6948;DHT22;3513;47.664;9.162;2023-02-24T15:47:22;11.60;92.00
6948;DHT22;3513;47.664;9.162;2023-02-24T15:49:48;11.50;92.30
6948;DHT22;3513;47.664;9.162;2023-02-24T15:52:20;11.40;92.50
6948;DHT22;3513;47.664;9.162;2023-02-24T15:54:47;11.30;92.80
6948;DHT22;3513;47.664;9.162;2023-02-24T15:57:14;11.20;93.20
6948;DHT22;3513;47.664;9.162;2023-02-24T15:59:41;11.20;93.40
6948;DHT22;3513;47.664;9.162;2023-02-24T16:02:15;11.10;93.60
6948;DHT22;3513;47.664;9.162;2023-02-24T16:04:42;11.10;93.90
6948;DHT22;3513;47.664;9.162;2023-02-24T16:07:14;11.10;94.10
6948;DHT22;3513;47.664;9.162;2023-02-24T16:09:41;11.00;94.20
6948;DHT22;3513;47.664;9.162;2023-02-24T16:12:29;10.90;94.90
6948;DHT22;3513;47.664;9.162;2023-02-24T16:14:57;10.80;94.90
6948;DHT22;3513;47.664;9.162;2023-02-24T16:17:33;10.80;95.40
6948;DHT22;3513;47.664;9.162;2023-02-24T16:20:00;10.70;95.70
6948;DHT22;3513;47.664;9.162;2023-02-24T16:22:27;10.40;96.20
6948;DHT22;3513;47.664;9.162;2023-02-24T16:24:53;10.40;96.70
6948;DHT22;3513;47.664;9.162;2023-02-24T16:27:20;10.30;97.20
6948;DHT22;3513;47.664;9.162;2023-02-24T16:29:46;10.30;97.60
6948;DHT22;3513;47.664;9.162;2023-02-24T16:32:14;10.10;97.80
6948;DHT22;3513;47.664;9.162;2023-02-24T16:34:40;10.20;98.20
6948;DHT22;3513;47.664;9.162;2023-02-24T16:37:17;10.30;98.60
6948;DHT22;3513;47.664;9.162;2023-02-24T16:39:43;10.10;98.90
6948;DHT22;3513;47.664;9.162;2023-02-24T16:47:03;10.00;99.70
6948;DHT22;3513;47.664;9.162;2023-02-24T16:49:30;10.30;99.90
6948;DHT22;3513;47.664;9.162;2023-02-24T16:51:56;10.30;99.90
6948;DHT22;3513;47.664;9.162;2023-02-24T16:54:22;10.20;99.90
6948;DHT22;3513;47.664;9.162;2023-02-24T17:01:45;10.00;99.90
6948;DHT22;3513;47.664;9.162;2023-02-24T17:04:10;10.30;99.90
6948;DHT22;3513;47.664;9.162;2023-02-24T17:11:30;10.40;99.90
6948;DHT22;3513;47.664;9.162;2023-02-24T17:13:57;10.30;99.90
6948;DHT22;3513;47.664;9.162;2023-02-24T17:21:16;10.20;99.90
6948;DHT22;3513;47.664;9.162;2023-02-24T17:26:12;10.20;99.90
6948;DHT22;3513;47.664;9.162;2023-02-24T17:28:38;10.00;99.90
6948;DHT22;3513;47.664;9.162;2023-02-24T17:33:32;10.30;99.90
6948;DHT22;3513;47.664;9.162;2023-02-24T17:40:51;10.00;99.90
6948;DHT22;3513;47.664;9.162;2023-02-24T17:45:45;9.90;99.90
6948;DHT22;3513;47.664;9.162;2023-02-24T17:48:12;9.90;99.90
6948;DHT22;3513;47.664;9.162;2023-02-24T17:50:45;9.90;99.90
6948;DHT22;3513;47.664;9.162;2023-02-24T17:53:11;10.00;99.50
6948;DHT22;3513;47.664;9.162;2023-02-24T17:58:03;10.10;97.60
6948;DHT22;3513;47.664;9.162;2023-02-24T18:12:39;9.80;99.90
6948;DHT22;3513;47.664;9.162;2023-02-24T18:15:05;9.60;99.90
6948;DHT22;3513;47.664;9.162;2023-02-24T18:37:00;9.50;99.90
6948;DHT22;3513;47.664;9.162;2023-02-24T18:39:26;9.10;99.90
6948;DHT22;3513;47.664;9.162;2023-02-24T18:54:04;8.90;99.90
6948;DHT22;3513;47.664;9.162;2023-02-24T18:56:32;8.80;99.90
6948;DHT22;3513;47.664;9.162;2023-02-24T18:58:59;8.90;99.90
6948;DHT22;3513;47.664;9.162;2023-02-24T19:01:35;8.90;99.90
6948;DHT22;3513;47.664;9.162;2023-02-24T19:04:02;8.90;99.90
6948;DHT22;3513;47.664;9.162;2023-02-24T19:06:29;9.00;99.90
6948;DHT22;3513;47.664;9.162;2023-02-24T19:09:09;8.90;99.90
6948;DHT22;3513;47.664;9.162;2023-02-24T19:11:35;9.00;99.90
6948;DHT22;3513;47.664;9.162;2023-02-24T19:16:28;9.00;99.90
6948;DHT22;3513;47.664;9.162;2023-02-24T19:18:55;9.10;99.90
6948;DHT22;3513;47.664;9.162;2023-02-24T19:21:22;9.20;99.90
6948;DHT22;3513;47.664;9.162;2023-02-24T19:31:12;9.20;99.90
6948;DHT22;3513;47.664;9.162;2023-02-24T19:33:38;9.40;99.90
6948;DHT22;3513;47.664;9.162;2023-02-24T19:36:04;10.00;99.90
6948;DHT22;3513;47.664;9.162;2023-02-24T19:40:59;9.30;99.90
6948;DHT22;3513;47.664;9.162;2023-02-24T19:45:51;9.40;99.90
6948;DHT22;3513;47.664;9.162;2023-02-24T19:50:43;9.40;99.90
6948;DHT22;3513;47.664;9.162;2023-02-24T19:58:02;9.90;99.90
6948;DHT22;3513;47.664;9.162;2023-02-24T20:02:55;9.80;99.90
6948;DHT22;3513;47.664;9.162;2023-02-24T20:05:21;9.70;99.90
6948;DHT22;3513;47.664;9.162;2023-02-24T20:10:15;9.60;99.90
6948;DHT22;3513;47.664;9.162;2023-02-24T20:27:17;9.30;99.90
6948;DHT22;3513;47.664;9.162;2023-02-24T20:29:43;9.40;99.90
6948;DHT22;3513;47.664;9.162;2023-02-24T20:32:10;9.40;99.90
6948;DHT22;3513;47.664;9.162;2023-02-24T20:34:37;9.40;99.90
6948;DHT22;3513;47.664;9.162;2023-02-24T20:37:03;9.40;99.90
6948;DHT22;3513;47.664;9.162;2023-02-24T20:49:15;9.50;99.90
6948;DHT22;3513;47.664;9.162;2023-02-24T20:51:41;9.30;99.90
6948;DHT22;3513;47.664;9.162;2023-02-24T20:54:10;9.30;99.90
6948;DHT22;3513;47.664;9.162;2023-02-24T20:56:38;9.40;99.90
6948;DHT22;3513;47.664;9.162;2023-02-24T20:59:06;9.20;99.90
6948;DHT22;3513;47.664;9.162;2023-02-24T21:01:34;9.20;99.90
6948;DHT22;3513;47.664;9.162;2023-02-24T21:06:27;9.10;99.90
6948;DHT22;3513;47.664;9.162;2023-02-24T21:08:53;9.10;99.90
6948;DHT22;3513;47.664;9.162;2023-02-24T21:11:20;9.00;99.90